createdAt,value
2023-05-18T00:01:23.149Z,100.00
2023-05-18T00:04:06.667Z,100.00
2023-05-18T00:06:51.532Z,100.00
2023-05-18T00:09:50.127Z,100.00
2023-05-18T00:12:38.558Z,100.00
2023-05-18T00:15:22.736Z,100.00
2023-05-18T00:17:50.887Z,100.00
2023-05-18T00:20:18.865Z,100.00
2023-05-18T00:22:48.430Z,100.00
2023-05-18T00:25:15.370Z,100.00
2023-05-18T00:27:42.292Z,100.00
2023-05-18T00:30:09.826Z,100.00
2023-05-18T00:32:36.777Z,100.00
2023-05-18T00:35:04.026Z,100.00
2023-05-18T00:37:30.951Z,100.00
2023-05-18T00:39:57.902Z,100.00
2023-05-18T00:42:24.880Z,100.00
2023-05-18T00:44:51.793Z,100.00
2023-05-18T00:47:21.187Z,100.00
2023-05-18T00:49:48.202Z,100.00
2023-05-18T00:52:16.588Z,100.00
2023-05-18T00:54:43.942Z,100.00
2023-05-18T00:57:10.928Z,100.00
2023-05-18T00:59:37.890Z,100.00
2023-05-18T01:02:05.928Z,100.00
2023-05-18T01:04:33.050Z,100.00
2023-05-18T01:07:16.388Z,100.00
2023-05-18T01:10:03.452Z,100.00
2023-05-18T01:12:58.856Z,100.00
2023-05-18T01:16:05.982Z,100.00
2023-05-18T01:19:15.299Z,100.00
2023-05-18T01:21:54.386Z,100.00
2023-05-18T01:24:32.137Z,100.00
2023-05-18T01:27:01.190Z,100.00
2023-05-18T01:29:31.221Z,100.00
2023-05-18T01:31:58.479Z,100.00
2023-05-18T01:34:25.785Z,100.00
2023-05-18T01:36:52.776Z,100.00
2023-05-18T01:39:19.826Z,100.00
2023-05-18T01:41:55.523Z,100.00
2023-05-18T01:44:34.500Z,100.00
2023-05-18T01:47:12.713Z,100.00
2023-05-18T01:49:44.743Z,100.00
2023-05-18T01:52:23.316Z,100.00
2023-05-18T01:54:56.942Z,100.00
2023-05-18T01:57:27.488Z,100.00
2023-05-18T01:59:55.699Z,100.00
2023-05-18T02:02:22.811Z,100.00
2023-05-18T02:04:49.898Z,100.00
2023-05-18T02:07:16.903Z,100.00
2023-05-18T02:09:44.635Z,100.00
2023-05-18T02:12:12.032Z,100.00
2023-05-18T02:14:39.497Z,100.00
2023-05-18T02:17:07.397Z,100.00
2023-05-18T02:19:38.404Z,100.00
2023-05-18T02:22:07.180Z,100.00
2023-05-18T02:24:34.779Z,100.00
2023-05-18T02:27:02.360Z,100.00
2023-05-18T02:29:29.286Z,100.00
2023-05-18T02:31:56.408Z,100.00
2023-05-18T02:34:24.968Z,100.00
2023-05-18T02:36:51.975Z,100.00
2023-05-18T02:39:18.924Z,100.00
2023-05-18T02:41:46.046Z,100.00
2023-05-18T02:44:13.299Z,100.00
2023-05-18T02:46:42.320Z,100.00
2023-05-18T02:49:10.441Z,100.00
2023-05-18T02:51:39.365Z,100.00
2023-05-18T02:54:08.333Z,100.00
2023-05-18T02:56:35.510Z,100.00
2023-05-18T02:59:06.587Z,100.00
2023-05-18T03:01:37.556Z,100.00
2023-05-18T03:04:04.632Z,100.00
2023-05-18T03:06:32.493Z,100.00
2023-05-18T03:08:59.452Z,100.00
2023-05-18T03:11:29.323Z,100.00
2023-05-18T03:13:56.423Z,100.00
2023-05-18T03:16:28.574Z,100.00
2023-05-18T03:18:56.093Z,100.00
2023-05-18T03:21:23.111Z,100.00
2023-05-18T03:23:50.056Z,100.00
2023-05-18T03:26:17.123Z,100.00
2023-05-18T03:28:44.059Z,100.00
2023-05-18T03:31:11.313Z,100.00
2023-05-18T03:33:40.697Z,100.00
2023-05-18T03:36:08.931Z,100.00
2023-05-18T03:38:36.713Z,100.00
2023-05-18T03:41:04.588Z,100.00
2023-05-18T03:43:33.157Z,100.00
2023-05-18T03:46:00.616Z,100.00
2023-05-18T03:48:28.383Z,100.00
2023-05-18T03:50:55.749Z,100.00
2023-05-18T03:53:23.939Z,100.00
2023-05-18T03:55:52.409Z,100.00
2023-05-18T03:58:22.883Z,100.00
2023-05-18T04:00:51.294Z,100.00
2023-05-18T04:03:18.378Z,100.00
2023-05-18T04:05:46.187Z,100.00
2023-05-18T04:08:16.233Z,100.00
2023-05-18T04:10:43.953Z,100.00
2023-05-18T04:13:11.662Z,100.00
2023-05-18T04:15:38.819Z,100.00
2023-05-18T04:18:05.858Z,100.00
2023-05-18T04:20:32.945Z,100.00
2023-05-18T04:23:00.344Z,100.00
2023-05-18T04:25:28.565Z,100.00
2023-05-18T04:27:56.848Z,100.00
2023-05-18T04:30:23.942Z,100.00
2023-05-18T04:32:51.262Z,100.00
2023-05-18T04:35:18.808Z,100.00
2023-05-18T04:37:45.851Z,100.00
2023-05-18T04:40:14.310Z,100.00
2023-05-18T04:42:45.838Z,100.00
2023-05-18T04:45:16.643Z,100.00
2023-05-18T04:47:47.597Z,100.00
2023-05-18T04:50:17.894Z,100.00
2023-05-18T04:52:49.275Z,100.00
2023-05-18T04:55:26.590Z,100.00
2023-05-18T04:57:57.128Z,100.00
2023-05-18T05:00:29.487Z,100.00
2023-05-18T05:02:58.186Z,100.00
2023-05-18T05:05:26.565Z,100.00
2023-05-18T05:07:54.064Z,100.00
2023-05-18T05:10:21.956Z,100.00
2023-05-18T05:12:51.278Z,100.00
2023-05-18T05:15:19.065Z,100.00
2023-05-18T05:17:49.657Z,100.00
2023-05-18T05:20:17.094Z,100.00
2023-05-18T05:22:44.117Z,100.00
2023-05-18T05:25:11.555Z,100.00
2023-05-18T05:27:38.723Z,100.00
2023-05-18T05:30:06.356Z,100.00
2023-05-18T05:32:33.528Z,100.00
2023-05-18T05:35:00.503Z,100.00
2023-05-18T05:37:27.485Z,100.00
2023-05-18T05:39:54.579Z,100.00
2023-05-18T05:42:21.757Z,100.00
2023-05-18T05:44:48.712Z,99.47
2023-05-18T05:47:15.916Z,98.48
2023-05-18T05:49:42.848Z,97.28
2023-05-18T05:52:09.767Z,97.95
2023-05-18T05:54:36.708Z,96.62
2023-05-18T05:57:04.169Z,96.97
2023-05-18T05:59:31.120Z,94.74
2023-05-18T06:01:58.176Z,95.56
2023-05-18T06:04:25.282Z,95.09
2023-05-18T06:06:52.329Z,94.26
2023-05-18T06:09:19.286Z,95.48
2023-05-18T06:11:46.323Z,96.04
2023-05-18T06:14:13.419Z,94.13
2023-05-18T06:16:40.471Z,93.79
2023-05-18T06:19:07.516Z,95.30
2023-05-18T06:21:34.611Z,94.47
2023-05-18T06:24:02.194Z,93.41
2023-05-18T06:26:29.380Z,91.05
2023-05-18T06:28:56.459Z,90.73
2023-05-18T06:31:23.866Z,91.20
2023-05-18T06:33:50.995Z,91.72
2023-05-18T06:36:17.939Z,90.82
2023-05-18T06:38:45.010Z,91.24
2023-05-18T06:41:12.138Z,89.57
2023-05-18T06:43:39.109Z,89.45
2023-05-18T06:46:06.286Z,89.26
2023-05-18T06:48:33.257Z,89.30
2023-05-18T06:51:00.215Z,86.89
2023-05-18T06:53:27.630Z,90.45
2023-05-18T06:55:54.576Z,87.35
2023-05-18T06:58:21.739Z,91.44
2023-05-18T07:00:49.559Z,87.26
2023-05-18T07:03:16.768Z,86.21
2023-05-18T07:05:43.795Z,86.95
2023-05-18T07:08:10.851Z,88.33
2023-05-18T07:10:37.969Z,89.81
2023-05-18T07:13:04.912Z,89.27
2023-05-18T07:15:32.214Z,88.95
2023-05-18T07:17:59.444Z,88.54
2023-05-18T07:20:27.080Z,88.42
2023-05-18T07:22:56.047Z,87.50
2023-05-18T07:25:23.740Z,85.03
2023-05-18T07:27:52.427Z,87.81
2023-05-18T07:30:19.448Z,88.35
2023-05-18T07:32:46.537Z,88.17
2023-05-18T07:35:13.525Z,83.57
2023-05-18T07:37:40.484Z,87.66
2023-05-18T07:40:10.066Z,84.09
2023-05-18T07:42:39.732Z,85.31
2023-05-18T07:45:08.138Z,83.10
2023-05-18T07:47:35.178Z,82.08
2023-05-18T07:50:02.334Z,81.02
2023-05-18T07:52:29.300Z,82.80
2023-05-18T07:54:59.954Z,81.67
2023-05-18T07:57:27.336Z,79.09
2023-05-18T07:59:54.353Z,80.25
2023-05-18T08:02:21.374Z,83.00
2023-05-18T08:04:48.765Z,86.13
2023-05-18T08:07:15.748Z,81.74
2023-05-18T08:09:42.716Z,83.28
2023-05-18T08:12:09.798Z,82.24
2023-05-18T08:14:36.847Z,83.76
2023-05-18T08:17:05.028Z,82.94
2023-05-18T08:19:32.137Z,82.55
2023-05-18T08:21:59.284Z,81.66
2023-05-18T08:24:26.325Z,81.93
2023-05-18T08:26:53.497Z,81.04
2023-05-18T08:29:20.591Z,82.94
2023-05-18T08:31:49.195Z,81.79
2023-05-18T08:34:16.863Z,80.49
2023-05-18T08:36:46.008Z,82.69
2023-05-18T08:39:13.381Z,85.85
2023-05-18T08:41:49.138Z,78.96
2023-05-18T08:44:21.343Z,80.34
2023-05-18T08:46:51.697Z,79.48
2023-05-18T08:49:21.029Z,81.12
2023-05-18T08:51:54.738Z,83.23
2023-05-18T08:54:23.313Z,83.74
2023-05-18T08:56:52.868Z,80.76
2023-05-18T08:59:24.545Z,79.21
2023-05-18T09:01:52.709Z,77.76
2023-05-18T09:04:21.209Z,79.24
2023-05-18T09:06:49.813Z,80.45
2023-05-18T09:09:18.566Z,77.57
2023-05-18T09:11:47.476Z,77.99
2023-05-18T09:14:14.761Z,77.88
2023-05-18T09:16:41.812Z,79.18
2023-05-18T09:19:08.882Z,78.05
2023-05-18T09:21:36.076Z,77.91
2023-05-18T09:24:03.593Z,78.17
2023-05-18T09:26:31.204Z,77.61
2023-05-18T09:28:59.712Z,78.80
2023-05-18T09:31:28.082Z,78.32
2023-05-18T09:33:55.191Z,76.67
2023-05-18T09:36:26.602Z,76.35
2023-05-18T09:38:53.721Z,74.40
2023-05-18T09:41:22.046Z,79.00
2023-05-18T09:43:49.345Z,78.76
2023-05-18T09:46:16.395Z,80.47
2023-05-18T09:48:46.313Z,78.74
2023-05-18T09:51:17.100Z,74.39
2023-05-18T09:53:49.799Z,76.14
2023-05-18T09:56:18.353Z,79.75
2023-05-18T09:58:46.309Z,75.86
2023-05-18T10:01:13.606Z,78.15
2023-05-18T10:03:40.774Z,76.08
2023-05-18T10:06:14.881Z,76.11
2023-05-18T10:08:42.050Z,77.49
2023-05-18T10:11:09.470Z,79.36
2023-05-18T10:13:36.507Z,80.77
2023-05-18T10:16:06.167Z,78.60
2023-05-18T10:18:35.887Z,79.65
2023-05-18T10:21:06.098Z,77.37
2023-05-18T10:23:35.905Z,75.14
2023-05-18T10:26:08.114Z,77.10
2023-05-18T10:28:50.370Z,78.67
2023-05-18T10:31:17.484Z,76.12
2023-05-18T10:33:46.649Z,79.28
2023-05-18T10:36:13.745Z,76.03
2023-05-18T10:38:45.543Z,77.84
2023-05-18T10:41:12.967Z,77.17
2023-05-18T10:43:42.239Z,79.76
2023-05-18T10:46:10.178Z,78.35
2023-05-18T10:48:41.132Z,77.87
2023-05-18T10:51:08.633Z,78.74
2023-05-18T10:53:37.009Z,80.22
2023-05-18T10:56:04.606Z,80.89
2023-05-18T10:58:33.078Z,79.86
2023-05-18T11:01:03.492Z,78.47
2023-05-18T11:03:33.447Z,82.52
2023-05-18T11:06:11.759Z,82.72
2023-05-18T11:08:49.642Z,80.13
2023-05-18T11:11:19.354Z,81.07
2023-05-18T11:13:50.530Z,80.83
2023-05-18T11:16:18.838Z,79.04
2023-05-18T11:18:46.800Z,82.08
2023-05-18T11:21:29.201Z,79.89
2023-05-18T11:24:25.490Z,80.11
2023-05-18T11:26:54.836Z,81.44
2023-05-18T11:29:34.502Z,80.62
2023-05-18T11:32:02.729Z,82.53
2023-05-18T11:34:50.216Z,82.24
2023-05-18T11:37:38.366Z,79.09
2023-05-18T11:40:13.980Z,79.79
2023-05-18T11:42:40.967Z,81.60
2023-05-18T11:45:13.041Z,81.91
2023-05-18T11:47:41.535Z,85.02
2023-05-18T11:50:12.049Z,82.66
2023-05-18T11:52:51.707Z,86.07
2023-05-18T11:55:21.227Z,85.93
2023-05-18T11:57:52.926Z,85.60
2023-05-18T12:00:20.681Z,87.00
2023-05-18T12:02:49.530Z,85.92
2023-05-18T12:05:17.492Z,84.44
2023-05-18T12:07:45.320Z,87.72
2023-05-18T12:10:17.469Z,87.52
2023-05-18T12:12:49.545Z,88.32
2023-05-18T12:15:17.456Z,87.39
2023-05-18T12:17:49.077Z,87.77
2023-05-18T12:20:21.698Z,88.87
2023-05-18T12:22:52.800Z,89.91
2023-05-18T12:25:21.864Z,91.45
2023-05-18T12:27:50.009Z,90.90
2023-05-18T12:30:21.742Z,92.58
2023-05-18T12:32:54.294Z,92.13
2023-05-18T12:35:24.575Z,93.67
2023-05-18T12:37:52.124Z,92.23
2023-05-18T12:40:20.771Z,92.99
2023-05-18T12:42:55.203Z,92.42
2023-05-18T12:45:27.959Z,92.36
2023-05-18T12:47:56.448Z,93.77
2023-05-18T12:50:27.125Z,93.74
2023-05-18T12:52:56.755Z,95.97
2023-05-18T12:55:25.478Z,95.37
2023-05-18T12:58:04.019Z,97.81
2023-05-18T13:00:35.736Z,96.90
2023-05-18T13:03:14.815Z,97.40
2023-05-18T13:05:47.087Z,93.63
2023-05-18T13:08:16.653Z,90.71
2023-05-18T13:10:44.382Z,90.99
2023-05-18T13:13:15.163Z,91.45
2023-05-18T13:15:43.980Z,93.18
2023-05-18T13:18:12.248Z,94.59
2023-05-18T13:20:51.103Z,95.67
2023-05-18T13:23:20.107Z,95.79
2023-05-18T13:25:47.832Z,95.83
2023-05-18T13:28:17.150Z,95.16
2023-05-18T13:30:47.398Z,96.78
2023-05-18T13:33:15.246Z,97.26
2023-05-18T13:35:43.271Z,97.55
2023-05-18T13:38:14.374Z,96.49
2023-05-18T13:40:42.233Z,94.55
2023-05-18T13:43:11.193Z,94.83
2023-05-18T13:45:40.542Z,94.49
2023-05-18T13:48:10.090Z,96.98
2023-05-18T13:50:37.944Z,94.99
2023-05-18T13:53:05.117Z,94.69
2023-05-18T13:55:33.494Z,96.21
2023-05-18T13:58:01.172Z,96.88
2023-05-18T14:00:28.369Z,97.51
2023-05-18T14:02:56.871Z,95.87
2023-05-18T14:05:24.325Z,97.85
2023-05-18T14:07:54.672Z,95.81
2023-05-18T14:10:21.799Z,97.04
2023-05-18T14:12:48.952Z,97.71
2023-05-18T14:15:16.157Z,97.00
2023-05-18T14:17:43.944Z,97.85
2023-05-18T14:20:12.843Z,97.19
2023-05-18T14:22:41.021Z,99.36
2023-05-18T14:25:08.445Z,98.38
2023-05-18T14:27:35.425Z,100.00
2023-05-18T14:30:02.708Z,100.00
2023-05-18T14:32:29.872Z,100.00
2023-05-18T14:35:00.295Z,99.09
2023-05-18T14:37:27.302Z,100.00
2023-05-18T14:39:54.216Z,99.34
2023-05-18T14:42:21.290Z,100.00
2023-05-18T14:44:48.316Z,100.00
2023-05-18T14:47:15.370Z,100.00
2023-05-18T14:49:42.320Z,100.00
2023-05-18T14:52:09.556Z,100.00
2023-05-18T14:54:36.914Z,100.00
2023-05-18T14:57:04.238Z,99.61
2023-05-18T14:59:31.355Z,100.00
2023-05-18T15:01:58.499Z,100.00
2023-05-18T15:04:26.018Z,100.00
2023-05-18T15:06:53.069Z,99.04
2023-05-18T15:09:20.024Z,100.00
2023-05-18T15:11:46.997Z,100.00
2023-05-18T15:14:14.028Z,100.00
2023-05-18T15:16:41.325Z,99.98
2023-05-18T15:19:08.610Z,100.00
2023-05-18T15:21:35.631Z,98.74
2023-05-18T15:24:02.590Z,100.00
2023-05-18T15:26:29.581Z,98.55
2023-05-18T15:28:56.720Z,97.62
2023-05-18T15:31:23.708Z,96.99
2023-05-18T15:33:50.832Z,93.85
2023-05-18T15:36:17.871Z,88.64
2023-05-18T15:38:45.085Z,89.18
2023-05-18T15:41:12.076Z,91.40
2023-05-18T15:43:39.547Z,92.47
2023-05-18T15:46:06.665Z,93.90
2023-05-18T15:48:33.724Z,90.51
2023-05-18T15:51:00.645Z,88.54
2023-05-18T15:53:27.663Z,88.13
2023-05-18T15:55:58.689Z,90.89
2023-05-18T15:58:27.016Z,90.28
2023-05-18T16:00:54.305Z,90.74
2023-05-18T16:03:21.511Z,92.66
2023-05-18T16:05:48.707Z,92.82
2023-05-18T16:08:15.733Z,93.59
2023-05-18T16:10:42.694Z,93.31
2023-05-18T16:13:09.707Z,94.55
2023-05-18T16:15:36.908Z,95.25
2023-05-18T16:18:04.203Z,94.96
2023-05-18T16:20:31.377Z,96.72
2023-05-18T16:22:59.204Z,95.29
2023-05-18T16:25:26.792Z,95.90
2023-05-18T16:27:53.862Z,96.04
2023-05-18T16:30:20.986Z,96.64
2023-05-18T16:32:48.248Z,96.77
2023-05-18T16:35:15.371Z,95.47
2023-05-18T16:37:42.526Z,95.83
2023-05-18T16:40:10.037Z,98.36
2023-05-18T16:42:37.028Z,98.58
2023-05-18T16:45:04.285Z,96.12
2023-05-18T16:47:32.878Z,98.92
2023-05-18T16:50:00.945Z,100.00
2023-05-18T16:52:28.884Z,100.00
2023-05-18T16:54:56.917Z,98.74
2023-05-18T16:57:27.477Z,98.28
2023-05-18T16:59:55.524Z,98.20
2023-05-18T17:02:24.772Z,96.31
2023-05-18T17:04:52.763Z,96.53
2023-05-18T17:07:20.030Z,96.28
2023-05-18T17:09:47.759Z,96.88
2023-05-18T17:12:14.770Z,95.51
2023-05-18T17:14:42.088Z,98.71
2023-05-18T17:17:09.852Z,99.35
2023-05-18T17:19:37.228Z,97.93
2023-05-18T17:22:05.045Z,97.59
2023-05-18T17:24:32.432Z,97.71
2023-05-18T17:27:00.035Z,97.47
2023-05-18T17:29:28.143Z,97.26
2023-05-18T17:31:56.120Z,98.80
2023-05-18T17:34:23.934Z,98.19
2023-05-18T17:36:51.401Z,100.00
2023-05-18T17:39:20.717Z,98.66
2023-05-18T17:41:48.509Z,99.11
2023-05-18T17:44:17.255Z,98.16
2023-05-18T17:46:46.533Z,99.43
2023-05-18T17:49:15.596Z,100.00
2023-05-18T17:51:43.373Z,100.00
2023-05-18T17:54:11.726Z,100.00
2023-05-18T17:56:40.004Z,100.00
2023-05-18T17:59:08.096Z,100.00
2023-05-18T18:01:36.301Z,100.00
2023-05-18T18:04:05.494Z,99.40
2023-05-18T18:06:36.313Z,99.45
2023-05-18T18:09:07.672Z,99.95
2023-05-18T18:11:35.975Z,100.00
2023-05-18T18:14:03.860Z,100.00
2023-05-18T18:16:31.643Z,100.00
2023-05-18T18:19:00.226Z,100.00
2023-05-18T18:21:27.867Z,98.56
2023-05-18T18:23:55.274Z,98.35
2023-05-18T18:26:23.104Z,98.16
2023-05-18T18:28:51.864Z,98.30
2023-05-18T18:31:21.345Z,97.20
2023-05-18T18:33:51.484Z,96.59
2023-05-18T18:36:19.180Z,97.45
2023-05-18T18:38:47.996Z,96.12
2023-05-18T18:41:17.489Z,99.46
2023-05-18T18:43:44.921Z,96.54
2023-05-18T18:46:12.433Z,98.23
2023-05-18T18:48:39.454Z,99.04
2023-05-18T18:51:06.456Z,97.89
2023-05-18T18:53:33.751Z,96.95
2023-05-18T18:56:02.872Z,97.12
2023-05-18T18:58:31.129Z,97.75
2023-05-18T19:00:58.552Z,97.96
2023-05-18T19:03:26.467Z,99.75
2023-05-18T19:05:53.551Z,100.00
2023-05-18T19:08:20.888Z,98.50
2023-05-18T19:10:50.678Z,98.00
2023-05-18T19:13:18.101Z,97.10
2023-05-18T19:15:45.636Z,97.92
2023-05-18T19:18:12.646Z,97.40
2023-05-18T19:20:39.578Z,97.63
2023-05-18T19:23:06.634Z,97.68
2023-05-18T19:25:33.776Z,96.67
2023-05-18T19:28:01.163Z,97.85
2023-05-18T19:30:28.468Z,98.93
2023-05-18T19:32:55.459Z,97.97
2023-05-18T19:35:26.374Z,98.06
2023-05-18T19:37:53.765Z,98.55
2023-05-18T19:40:22.964Z,98.47
2023-05-18T19:42:50.557Z,98.26
2023-05-18T19:46:17.735Z,98.50
2023-05-18T19:48:44.733Z,99.53
2023-05-18T19:51:11.982Z,100.00
2023-05-18T19:53:38.961Z,100.00
2023-05-18T19:56:06.321Z,99.96
2023-05-18T19:58:33.236Z,100.00
2023-05-18T20:01:00.276Z,100.00
2023-05-18T20:03:27.902Z,99.73
2023-05-18T20:05:56.536Z,100.00
2023-05-18T20:08:23.597Z,100.00
2023-05-18T20:10:50.692Z,100.00
2023-05-18T20:13:17.621Z,100.00
2023-05-18T20:15:44.928Z,100.00
2023-05-18T20:18:11.892Z,100.00
2023-05-18T20:20:38.914Z,100.00
2023-05-18T20:23:10.936Z,100.00
2023-05-18T20:25:38.240Z,100.00
2023-05-18T20:28:08.324Z,100.00
2023-05-18T20:30:35.352Z,100.00
2023-05-18T20:33:04.970Z,100.00
2023-05-18T20:35:32.852Z,100.00
2023-05-18T20:38:00.570Z,100.00
2023-05-18T20:40:31.046Z,100.00
2023-05-18T20:43:00.862Z,100.00
2023-05-18T20:45:30.052Z,100.00
2023-05-18T20:47:57.941Z,100.00
2023-05-18T20:50:24.970Z,100.00
2023-05-18T20:52:52.961Z,100.00
2023-05-18T20:55:20.174Z,100.00
2023-05-18T20:57:49.253Z,100.00
2023-05-18T21:00:17.518Z,100.00
2023-05-18T21:02:46.210Z,100.00
2023-05-18T21:05:14.388Z,100.00
2023-05-18T21:07:41.294Z,100.00
2023-05-18T21:10:09.768Z,100.00
2023-05-18T21:12:37.069Z,100.00
2023-05-18T21:15:04.675Z,100.00
2023-05-18T21:17:32.257Z,100.00
2023-05-18T21:19:59.228Z,100.00
2023-05-18T21:22:26.235Z,100.00
2023-05-18T21:24:53.191Z,100.00
2023-05-18T21:27:20.162Z,100.00
2023-05-18T21:29:47.098Z,100.00
2023-05-18T21:32:14.262Z,100.00
2023-05-18T21:34:43.467Z,100.00
2023-05-18T21:37:11.099Z,100.00
2023-05-18T21:39:38.128Z,100.00
2023-05-18T21:42:05.311Z,100.00
2023-05-18T21:44:33.303Z,100.00
2023-05-18T21:47:00.212Z,100.00
2023-05-18T21:49:27.162Z,100.00
2023-05-18T21:51:54.143Z,100.00
2023-05-18T21:54:21.158Z,100.00
2023-05-18T21:56:48.153Z,100.00
2023-05-18T21:59:15.094Z,100.00
2023-05-18T22:01:42.065Z,100.00
2023-05-18T22:04:09.127Z,100.00
2023-05-18T22:06:36.076Z,100.00
2023-05-18T22:09:03.081Z,100.00
2023-05-18T22:11:30.116Z,100.00
2023-05-18T22:13:57.086Z,100.00
2023-05-18T22:16:24.099Z,100.00
2023-05-18T22:18:51.142Z,100.00
2023-05-18T22:21:18.116Z,100.00
2023-05-18T22:23:45.033Z,100.00
2023-05-18T22:26:12.475Z,100.00
2023-05-18T22:28:39.452Z,100.00
2023-05-18T22:31:06.813Z,100.00
2023-05-18T22:33:33.836Z,100.00
2023-05-18T22:36:01.128Z,100.00
2023-05-18T22:38:28.063Z,100.00
2023-05-18T22:40:55.175Z,100.00
2023-05-18T22:43:22.550Z,100.00
2023-05-18T22:45:49.858Z,100.00
2023-05-18T22:48:16.943Z,100.00
2023-05-18T22:50:43.938Z,100.00
2023-05-18T22:53:12.224Z,100.00
2023-05-18T22:55:39.468Z,100.00
2023-05-18T22:58:06.441Z,100.00
2023-05-18T23:00:33.611Z,100.00
2023-05-18T23:03:00.913Z,100.00
2023-05-18T23:05:27.988Z,100.00
2023-05-18T23:07:58.140Z,100.00
2023-05-18T23:10:26.647Z,100.00
2023-05-18T23:12:55.932Z,100.00
2023-05-18T23:15:23.291Z,100.00
2023-05-18T23:17:50.562Z,100.00
2023-05-18T23:20:17.478Z,100.00
2023-05-18T23:22:44.628Z,100.00
2023-05-18T23:25:11.927Z,100.00
2023-05-18T23:27:38.851Z,100.00
2023-05-18T23:30:06.862Z,100.00
2023-05-18T23:32:35.378Z,100.00
2023-05-18T23:35:04.655Z,100.00
2023-05-18T23:37:35.848Z,100.00
2023-05-18T23:40:03.131Z,100.00
2023-05-18T23:42:30.776Z,100.00
2023-05-18T23:44:58.046Z,100.00
2023-05-18T23:47:25.323Z,100.00
2023-05-18T23:49:53.207Z,100.00
2023-05-18T23:52:23.276Z,100.00
2023-05-18T23:54:53.619Z,100.00
2023-05-18T23:57:21.213Z,100.00
2023-05-18T23:59:48.824Z,100.00
